Robertsport/Cape Mount Airport

Jump to: basic info | weather | comments

Related pages: nearby airports | nearby navaids | notams | map

Basic information (top)

Codes: GLCM
Location: lon 6.800000, lat -11.367000, elev 10 ft / 3 m msl
Status: small_airport

Weather (top)

Current conditions for Roberts International Airport 69nm (128km) ESE (rec'd 2014/09/17 21:00Z):

GLRB 172100Z 00000KT 9999 BKN011 FEW022CB 24/23 Q1014 RMK CB-NE

Airport forecast for Roberts International Airport 69nm (128km) ESE (rec'd 2014/09/17 18:51Z):

TAF TAF GLRB 171600Z 1718/1824 24010KT 4000 RA BKN003 OVC010 FEW023CB 
      BECMG 1719/1721 20012KT 6000 TSRA SCT005 OVC012 FEW024CB 
     FM172200 19014KT 3000 RA/TSRA BKN002 OVC010 FEW020CB 
      TEMPO 1803/1807 20012KT 8000 BKN013 FEW023CB

Latest comments (top)

No comments yet for Robertsport/Cape Mount Airport

More... (top)

See also NOTAMs and nearby airports and navaids, or visit the Robertsport/Cape Mount Airport page at the main OurAirports website..